createdAt,value
2015-03-23T09:34:15.286Z,21
2015-03-23T09:40:35.581Z,20
2015-03-23T09:44:00.759Z,18
2015-03-23T09:44:11.431Z,19
2015-03-23T09:44:21.871Z,18
2015-03-23T09:44:33.105Z,19
2015-03-23T09:44:45.308Z,19
2015-03-23T09:44:58.511Z,18
2015-03-23T09:45:06.558Z,19
2015-03-23T09:46:58.924Z,19
2015-03-23T09:47:06.424Z,16
2015-03-23T09:47:16.752Z,16
2015-03-23T09:47:27.082Z,16
2015-03-23T09:47:37.504Z,16
2015-03-23T09:47:44.848Z,17
2015-03-23T09:47:55.301Z,17
2015-03-23T09:51:58.371Z,19
2015-03-23T09:52:12.652Z,20
2015-03-23T09:53:42.471Z,20
2015-03-23T09:53:53.612Z,21
2015-03-23T09:54:08.690Z,21
2015-03-23T09:54:19.879Z,21
2015-03-23T09:54:33.192Z,21
2015-03-23T09:54:47.051Z,22
2015-03-23T09:55:03.504Z,22
2015-03-23T09:55:21.209Z,22
2015-03-23T09:55:34.991Z,22
2015-03-23T09:55:53.662Z,22
2015-03-23T09:56:05.491Z,22
2015-03-23T09:56:21.196Z,22
2015-03-23T09:56:38.571Z,22
2015-03-23T09:56:55.149Z,22
2015-03-23T09:57:09.743Z,22
2015-03-23T09:57:22.260Z,22
2015-03-23T09:57:29.948Z,22
2015-03-23T09:57:40.291Z,22
2015-03-23T09:57:50.713Z,22
2015-03-23T09:58:01.057Z,23
2015-03-23T09:58:11.432Z,23
2015-03-23T09:58:19.166Z,23
2015-03-23T09:58:29.498Z,23
2015-03-23T09:58:37.154Z,23
2015-03-23T10:31:31.401Z,25
2015-03-23T10:31:45.588Z,25
2015-03-23T10:32:00.198Z,24
2015-03-23T10:32:15.779Z,24
2015-03-23T10:32:33.794Z,25
2015-03-23T10:32:48.029Z,24
2015-03-23T10:33:05.716Z,23
2015-03-23T10:33:23.562Z,22
2015-03-23T10:37:14.444Z,22
2015-03-23T10:38:48.683Z,21
2015-03-23T10:39:03.043Z,24
2015-03-23T10:39:12.730Z,23
2015-03-23T10:39:22.435Z,23
2015-03-23T10:39:32.201Z,23
2015-03-23T10:39:42.560Z,23
2015-03-23T10:39:52.357Z,23
2015-03-23T10:40:06.045Z,24
2015-03-23T10:40:16.826Z,24
2015-03-23T10:40:26.516Z,24
2015-03-23T10:40:36.251Z,23
2015-03-23T10:40:46.470Z,22
2015-03-23T10:41:04.423Z,22
2015-03-23T10:41:16.563Z,22
2015-03-23T10:41:27.206Z,22
2015-03-23T10:41:41.472Z,23
2015-03-23T10:41:56.097Z,23
2015-03-23T10:42:10.597Z,22
2015-03-23T10:42:28.974Z,22
2015-03-23T10:42:43.755Z,22
2015-03-23T10:42:59.770Z,23
2015-03-23T10:43:17.224Z,23
2015-03-23T10:43:39.508Z,23
2015-03-23T10:43:57.180Z,24
2015-03-23T10:44:15.617Z,24
2015-03-23T10:44:34.400Z,24
2015-03-23T10:44:51.572Z,24
2015-03-23T10:45:14.291Z,24
2015-03-23T10:45:31.809Z,24
2015-03-23T10:45:54.777Z,24
2015-03-23T10:46:12.637Z,24
2015-03-23T10:46:31.045Z,25
2015-03-23T10:46:46.779Z,25
2015-03-23T10:47:03.358Z,25
2015-03-23T10:47:12.983Z,25
2015-03-23T10:47:23.111Z,25
2015-03-23T10:47:33.736Z,26
2015-03-23T10:47:43.392Z,26
2015-03-23T10:47:53.376Z,25
2015-03-23T10:48:03.579Z,25
2015-03-23T10:48:13.345Z,26
2015-03-23T10:48:23.004Z,26
2015-03-23T10:48:35.614Z,26
2015-03-23T10:48:48.332Z,26
2015-03-23T10:48:58.489Z,26
2015-03-23T10:49:11.364Z,26
2015-03-23T10:49:23.958Z,26
2015-03-23T10:49:34.302Z,26
2015-03-23T10:49:50.333Z,25
2015-03-23T10:50:03.583Z,25
2015-03-23T10:50:16.474Z,25
2015-03-23T10:50:26.227Z,25
2015-03-23T10:50:45.368Z,25
2015-03-23T10:50:57.196Z,25
2015-03-23T10:51:13.711Z,25
2015-03-23T10:51:30.370Z,25
2015-03-23T10:51:44.541Z,25
2015-03-23T10:51:58.057Z,25
2015-03-23T10:52:14.995Z,25
2015-03-23T10:53:37.156Z,26
2015-03-23T10:53:54.468Z,26
2015-03-23T10:54:11.062Z,26
2015-03-23T10:58:56.418Z,26
2015-03-23T10:59:06.527Z,27
2015-03-23T10:59:16.387Z,27
2015-03-23T10:59:26.746Z,27
2015-03-23T11:02:21.378Z,27
2015-03-23T11:02:35.378Z,27
2015-03-23T11:02:49.597Z,27
2015-03-23T11:03:03.912Z,27
2015-03-23T11:16:41.052Z,35
2015-03-23T11:16:59.520Z,31
2015-03-23T11:17:13.711Z,29
2015-03-23T11:17:25.148Z,28
2015-03-23T11:17:34.836Z,27
2015-03-23T11:22:51.582Z,26
2015-03-23T11:23:08.504Z,24
2015-03-23T11:23:28.631Z,23
2015-03-23T11:23:49.303Z,22
2015-03-23T11:24:15.975Z,23
2015-03-23T11:24:49.446Z,23
2015-03-23T11:25:22.227Z,23
2015-03-23T11:25:42.636Z,23
2015-03-23T11:26:16.042Z,22
2015-03-23T11:26:57.044Z,22
2015-03-23T11:27:25.154Z,23
2015-03-23T11:30:08.645Z,23
2015-03-23T11:31:52.478Z,21
2015-03-23T11:36:31.815Z,24
2015-03-23T11:36:41.503Z,24
2015-03-23T11:36:51.130Z,24
2015-03-23T11:37:00.864Z,24
2015-03-23T11:42:17.486Z,25
2015-03-23T11:42:31.954Z,26
2015-03-23T11:42:45.829Z,26
2015-03-23T11:43:02.676Z,27
2015-03-23T11:43:18.285Z,26
2015-03-23T11:43:34.239Z,27
2015-03-23T11:44:04.741Z,27
2015-03-23T13:04:42.065Z,30
